Time;durP1;ratioP1;P1;durP2;ratioP2;P2;SDS_P1;SDS_P2;PMS_P1;PMS_P2;Temp;Humidity;BMP_temperature;BMP_pressure;BME280_temperature;BME280_humidity;BME280_pressure;Samples;Min_cycle;Max_cycle;Signal;HPM_P1;HPM_P2
2023/03/20 00:01:57;;;;;;;;;;;9.80;99.90;;;;;;5028464;28;19923;-59
2023/03/20 00:04:24;;;;;;;;;;;9.80;99.90;;;;;;5023429;28;20012;-61
2023/03/20 00:06:50;;;;;;;;;;;9.90;99.90;;;;;;5031432;28;19924;-58
2023/03/20 00:09:16;;;;;;;;;;;9.80;99.90;;;;;;5024206;28;19922;-61
2023/03/20 00:11:48;;;;;;;;;;;9.80;99.90;;;;;;5030716;28;19949;-61
2023/03/20 00:14:15;;;;;;;;;;;9.80;99.90;;;;;;5031865;28;20294;-61
2023/03/20 00:16:41;;;;;;;;;;;9.80;99.90;;;;;;5028533;28;19923;-61
2023/03/20 00:19:13;;;;;;;;;;;9.80;99.90;;;;;;5027679;28;19940;-59
2023/03/20 00:21:38;;;;;;;;;;;9.80;99.90;;;;;;5015655;28;20383;-58
2023/03/20 00:24:04;;;;;;;;;;;9.80;99.90;;;;;;5027193;28;19921;-60
2023/03/20 00:26:34;;;;;;;;;;;9.80;99.90;;;;;;5033113;28;20493;-60
2023/03/20 00:29:00;;;;;;;;;;;9.80;99.90;;;;;;5026851;28;20012;-60
2023/03/20 00:31:31;;;;;;;;;;;9.80;99.90;;;;;;5026668;28;19913;-61
2023/03/20 00:33:57;;;;;;;;;;;9.80;99.90;;;;;;5027054;28;20081;-59
2023/03/20 00:36:23;;;;;;;;;;;9.80;99.90;;;;;;5024317;28;19939;-59
2023/03/20 00:38:49;;;;;;;;;;;9.70;99.90;;;;;;5026928;28;19924;-59
2023/03/20 00:41:32;;;;;;;;;;;9.70;99.90;;;;;;5025615;28;19916;-59
2023/03/20 00:43:59;;;;;;;;;;;9.70;99.90;;;;;;5028908;28;19953;-60
2023/03/20 00:46:25;;;;;;;;;;;9.70;99.90;;;;;;5025279;28;19921;-60
2023/03/20 00:48:51;;;;;;;;;;;9.70;99.90;;;;;;5024816;28;19932;-59
2023/03/20 00:51:17;;;;;;;;;;;9.70;99.90;;;;;;5029608;28;19963;-60
2023/03/20 00:53:42;;;;;;;;;;;9.70;99.90;;;;;;5026246;28;19963;-58
2023/03/20 00:56:29;;;;;;;;;;;9.70;99.90;;;;;;5027894;28;19920;-60
2023/03/20 00:58:55;;;;;;;;;;;9.60;99.90;;;;;;5028729;28;20011;-61
2023/03/20 01:01:20;;;;;;;;;;;9.60;99.90;;;;;;5024790;28;20387;-61
2023/03/20 01:03:46;;;;;;;;;;;9.60;99.90;;;;;;5027011;28;20596;-58
2023/03/20 01:06:11;;;;;;;;;;;9.60;99.90;;;;;;5032403;28;19920;-56
2023/03/20 01:08:37;;;;;;;;;;;9.60;99.90;;;;;;5029094;28;19910;-60
2023/03/20 01:11:02;;;;;;;;;;;9.60;99.90;;;;;;5034027;28;19913;-60
2023/03/20 01:13:29;;;;;;;;;;;9.60;99.90;;;;;;5031281;28;19962;-59
2023/03/20 01:15:56;;;;;;;;;;;9.60;99.90;;;;;;5033217;28;19920;-58
2023/03/20 01:18:23;;;;;;;;;;;9.60;99.90;;;;;;5026546;28;19909;-59
2023/03/20 01:20:49;;;;;;;;;;;9.60;99.90;;;;;;5029562;28;19922;-58
2023/03/20 01:23:15;;;;;;;;;;;9.50;99.90;;;;;;5033066;28;19920;-60
2023/03/20 01:25:41;;;;;;;;;;;9.50;99.90;;;;;;5027183;28;20000;-60
2023/03/20 01:28:12;;;;;;;;;;;9.50;99.90;;;;;;5032380;28;20031;-58
2023/03/20 01:30:37;;;;;;;;;;;9.50;99.90;;;;;;5034395;28;19913;-58
2023/03/20 01:33:10;;;;;;;;;;;9.50;99.90;;;;;;5031212;28;19919;-59
2023/03/20 01:35:36;;;;;;;;;;;9.50;99.90;;;;;;5026123;28;19924;-59
2023/03/20 01:38:02;;;;;;;;;;;9.50;99.90;;;;;;5032149;28;20342;-61
2023/03/20 01:40:31;;;;;;;;;;;9.50;99.90;;;;;;5038263;28;19913;-61
2023/03/20 01:42:56;;;;;;;;;;;9.50;99.90;;;;;;5036192;28;19970;-59
2023/03/20 01:45:24;;;;;;;;;;;9.50;99.90;;;;;;5028637;28;19913;-60
2023/03/20 01:47:50;;;;;;;;;;;9.50;99.90;;;;;;5030157;28;19960;-60
2023/03/20 01:50:21;;;;;;;;;;;9.60;99.90;;;;;;5028155;28;19955;-59
2023/03/20 01:52:48;;;;;;;;;;;9.60;99.90;;;;;;5030973;28;19917;-59
2023/03/20 01:55:13;;;;;;;;;;;9.50;99.90;;;;;;5031568;28;19924;-60
2023/03/20 01:57:39;;;;;;;;;;;9.50;99.90;;;;;;5031586;28;19913;-60
2023/03/20 02:00:08;;;;;;;;;;;9.40;99.90;;;;;;5029321;28;19913;-58
2023/03/20 02:02:33;;;;;;;;;;;9.40;99.90;;;;;;5031899;28;19921;-59
2023/03/20 02:05:04;;;;;;;;;;;9.40;99.90;;;;;;5029577;28;19925;-59
2023/03/20 02:07:31;;;;;;;;;;;9.40;99.90;;;;;;5032922;28;21021;-60
2023/03/20 02:09:56;;;;;;;;;;;9.50;99.90;;;;;;5022869;28;19921;-61
2023/03/20 02:12:22;;;;;;;;;;;9.40;99.90;;;;;;5035681;28;19917;-60
2023/03/20 02:14:48;;;;;;;;;;;9.30;99.90;;;;;;5026516;28;19919;-60
2023/03/20 02:17:14;;;;;;;;;;;9.30;99.90;;;;;;5029526;28;19921;-60
2023/03/20 02:19:58;;;;;;;;;;;9.20;99.90;;;;;;5027836;28;19917;-58
2023/03/20 02:22:32;;;;;;;;;;;9.30;99.90;;;;;;5028985;28;20345;-55
2023/03/20 02:25:14;;;;;;;;;;;9.30;99.90;;;;;;5030271;28;20389;-62
2023/03/20 02:27:53;;;;;;;;;;;9.20;99.90;;;;;;5035565;28;19921;-62
2023/03/20 02:30:24;;;;;;;;;;;9.00;99.90;;;;;;5022867;28;21681;-61
2023/03/20 02:33:05;;;;;;;;;;;9.00;99.90;;;;;;5025999;28;19921;-61
2023/03/20 02:35:59;;;;;;;;;;;8.90;99.90;;;;;;5026842;28;19921;-60
2023/03/20 02:38:40;;;;;;;;;;;8.90;99.90;;;;;;5030201;28;19914;-61
2023/03/20 02:41:21;;;;;;;;;;;8.90;99.90;;;;;;5026008;28;19920;-62
2023/03/20 02:44:05;;;;;;;;;;;8.80;99.90;;;;;;5026089;28;19948;-61
2023/03/20 02:46:38;;;;;;;;;;;8.90;99.90;;;;;;5030340;28;19928;-61
2023/03/20 02:49:08;;;;;;;;;;;8.90;99.90;;;;;;5029740;28;19913;-60
2023/03/20 02:51:40;;;;;;;;;;;8.80;99.90;;;;;;5028932;28;19996;-60
2023/03/20 02:54:28;;;;;;;;;;;8.70;99.90;;;;;;5030237;28;19913;-60
2023/03/20 02:57:00;;;;;;;;;;;8.60;99.90;;;;;;5030699;28;19991;-61
2023/03/20 02:59:36;;;;;;;;;;;8.50;99.90;;;;;;5029338;28;19948;-61
2023/03/20 03:02:07;;;;;;;;;;;8.40;99.90;;;;;;5033499;28;19917;-60
2023/03/20 03:04:40;;;;;;;;;;;8.30;99.90;;;;;;5027980;28;19924;-60
2023/03/20 03:07:08;;;;;;;;;;;8.30;99.90;;;;;;5017761;28;20376;-61
2023/03/20 03:09:43;;;;;;;;;;;8.20;99.90;;;;;;5030070;28;19913;-61
2023/03/20 03:12:09;;;;;;;;;;;8.10;99.90;;;;;;5034710;28;19913;-59
2023/03/20 03:14:37;;;;;;;;;;;8.20;99.90;;;;;;5033309;28;19920;-60
2023/03/20 03:17:05;;;;;;;;;;;8.20;99.90;;;;;;5028312;28;19913;-62
2023/03/20 03:19:30;;;;;;;;;;;8.20;99.90;;;;;;5028311;28;20051;-62
2023/03/20 03:21:56;;;;;;;;;;;8.30;99.90;;;;;;5029409;28;20008;-61
2023/03/20 03:24:26;;;;;;;;;;;8.30;99.90;;;;;;5027228;28;19914;-60
2023/03/20 03:26:52;;;;;;;;;;;8.30;99.90;;;;;;5033685;28;19927;-57
2023/03/20 03:29:18;;;;;;;;;;;8.30;99.90;;;;;;5029138;28;19913;-61
2023/03/20 03:31:44;;;;;;;;;;;8.30;99.90;;;;;;5032364;28;20283;-61
2023/03/20 03:34:15;;;;;;;;;;;8.30;99.90;;;;;;5026054;28;19913;-60
2023/03/20 03:36:41;;;;;;;;;;;8.40;99.90;;;;;;5028354;28;19932;-61
2023/03/20 03:39:30;;;;;;;;;;;8.40;99.90;;;;;;5030272;28;19913;-62
2023/03/20 03:41:55;;;;;;;;;;;8.40;99.90;;;;;;4995243;28;19920;-61
2023/03/20 03:44:30;;;;;;;;;;;8.30;99.90;;;;;;5027537;28;19913;-60
2023/03/20 03:46:59;;;;;;;;;;;8.30;99.90;;;;;;5030700;28;20267;-61
2023/03/20 03:49:36;;;;;;;;;;;8.30;99.90;;;;;;5026812;28;20399;-59
2023/03/20 03:52:04;;;;;;;;;;;8.20;99.90;;;;;;5032455;28;19913;-60
2023/03/20 03:54:33;;;;;;;;;;;8.00;99.90;;;;;;5028817;28;19920;-60
2023/03/20 03:57:00;;;;;;;;;;;8.00;99.90;;;;;;5029069;28;19921;-59
2023/03/20 03:59:34;;;;;;;;;;;8.00;99.90;;;;;;5030508;28;19920;-59
2023/03/20 04:02:02;;;;;;;;;;;8.00;99.90;;;;;;5034293;28;20378;-58
2023/03/20 04:04:29;;;;;;;;;;;8.00;99.90;;;;;;5025400;28;20383;-59
2023/03/20 04:06:54;;;;;;;;;;;8.00;99.90;;;;;;5027211;28;19917;-61
2023/03/20 04:09:20;;;;;;;;;;;8.10;99.90;;;;;;5027157;28;19924;-62
2023/03/20 04:11:48;;;;;;;;;;;8.20;99.90;;;;;;5029454;28;19967;-60
2023/03/20 04:14:13;;;;;;;;;;;8.20;99.90;;;;;;5027928;28;19913;-60
2023/03/20 04:16:39;;;;;;;;;;;8.30;99.90;;;;;;5027628;28;19923;-59
2023/03/20 04:19:04;;;;;;;;;;;8.40;99.90;;;;;;5026701;28;20051;-60
2023/03/20 04:21:30;;;;;;;;;;;8.30;99.90;;;;;;5033707;28;19928;-59
2023/03/20 04:23:56;;;;;;;;;;;8.40;99.90;;;;;;5027597;28;19917;-60
2023/03/20 04:26:22;;;;;;;;;;;8.40;99.90;;;;;;5031032;28;19916;-58
2023/03/20 04:28:47;;;;;;;;;;;8.50;99.90;;;;;;5029069;28;19952;-56
2023/03/20 04:31:13;;;;;;;;;;;8.50;99.90;;;;;;5028639;28;19941;-60
2023/03/20 04:33:38;;;;;;;;;;;8.50;99.90;;;;;;5025979;28;19914;-60
2023/03/20 04:36:05;;;;;;;;;;;8.40;99.90;;;;;;5028778;28;19967;-60
2023/03/20 04:38:30;;;;;;;;;;;8.40;99.90;;;;;;5028316;28;19931;-60
2023/03/20 04:40:55;;;;;;;;;;;8.40;99.90;;;;;;5026859;28;20398;-57
2023/03/20 04:43:21;;;;;;;;;;;8.40;99.90;;;;;;5027269;28;20280;-61
2023/03/20 04:45:47;;;;;;;;;;;8.40;99.90;;;;;;5028562;28;19971;-61
2023/03/20 04:48:12;;;;;;;;;;;8.40;99.90;;;;;;5028988;28;19921;-61
2023/03/20 04:50:37;;;;;;;;;;;8.30;99.90;;;;;;5027464;28;19913;-59
2023/03/20 04:53:03;;;;;;;;;;;8.30;99.90;;;;;;5012529;28;20455;-57
2023/03/20 04:55:29;;;;;;;;;;;8.30;99.90;;;;;;5028062;28;19936;-59
2023/03/20 04:57:54;;;;;;;;;;;8.30;99.90;;;;;;5030734;28;19913;-59
2023/03/20 05:00:20;;;;;;;;;;;8.20;99.90;;;;;;5032269;28;19913;-61
2023/03/20 05:02:46;;;;;;;;;;;8.20;99.90;;;;;;5029360;28;20011;-59
2023/03/20 05:05:11;;;;;;;;;;;8.20;99.90;;;;;;5033181;28;19916;-57
2023/03/20 05:07:37;;;;;;;;;;;8.20;99.90;;;;;;5027000;28;19921;-60
2023/03/20 05:10:03;;;;;;;;;;;8.20;99.90;;;;;;5030505;28;19912;-60
2023/03/20 05:12:29;;;;;;;;;;;8.20;99.90;;;;;;5028698;28;19966;-61
2023/03/20 05:14:54;;;;;;;;;;;8.10;99.90;;;;;;5028031;28;19921;-61
2023/03/20 05:17:23;;;;;;;;;;;7.90;99.90;;;;;;5032307;28;19917;-61
2023/03/20 05:19:49;;;;;;;;;;;7.90;99.90;;;;;;5026501;28;20375;-60
2023/03/20 05:22:14;;;;;;;;;;;7.70;99.90;;;;;;5031368;28;19920;-60
2023/03/20 05:24:40;;;;;;;;;;;7.70;99.90;;;;;;5030763;28;20407;-60
2023/03/20 05:27:05;;;;;;;;;;;7.70;99.90;;;;;;5033483;28;20026;-60
2023/03/20 05:29:31;;;;;;;;;;;7.80;99.90;;;;;;5030243;28;19921;-61
2023/03/20 05:31:56;;;;;;;;;;;7.80;99.90;;;;;;5026554;28;19917;-59
2023/03/20 05:34:22;;;;;;;;;;;7.80;99.90;;;;;;5027889;28;19967;-60
2023/03/20 05:36:47;;;;;;;;;;;7.70;99.90;;;;;;5032835;28;19913;-61
2023/03/20 05:39:13;;;;;;;;;;;7.80;99.90;;;;;;5030422;28;19920;-61
2023/03/20 05:41:38;;;;;;;;;;;7.80;99.90;;;;;;5011168;28;19916;-60
2023/03/20 05:44:04;;;;;;;;;;;7.80;99.90;;;;;;5031703;28;20422;-58
2023/03/20 05:46:29;;;;;;;;;;;7.70;99.90;;;;;;5028186;28;19928;-60
2023/03/20 05:48:55;;;;;;;;;;;7.80;99.90;;;;;;5027366;28;20047;-59
2023/03/20 05:51:21;;;;;;;;;;;7.70;99.90;;;;;;5028911;28;19917;-60
2023/03/20 05:53:46;;;;;;;;;;;7.80;99.90;;;;;;5027284;28;20287;-62
2023/03/20 05:56:11;;;;;;;;;;;7.80;99.90;;;;;;5029823;28;19914;-61
2023/03/20 05:58:37;;;;;;;;;;;7.80;99.90;;;;;;5026666;28;19913;-61
2023/03/20 06:01:02;;;;;;;;;;;7.90;99.90;;;;;;5013930;28;19925;-60
2023/03/20 06:03:28;;;;;;;;;;;7.90;99.90;;;;;;5026060;28;19943;-62
2023/03/20 06:05:54;;;;;;;;;;;7.90;99.90;;;;;;5027045;28;19917;-60
2023/03/20 06:08:19;;;;;;;;;;;8.00;99.90;;;;;;5026829;28;20382;-62
2023/03/20 06:10:45;;;;;;;;;;;8.10;99.90;;;;;;5027603;28;19956;-61
2023/03/20 06:13:10;;;;;;;;;;;8.10;99.90;;;;;;5031809;28;19913;-60
2023/03/20 06:15:36;;;;;;;;;;;8.10;99.90;;;;;;5023605;28;20325;-59
2023/03/20 06:18:01;;;;;;;;;;;8.10;99.90;;;;;;5032237;28;19913;-63
2023/03/20 06:20:27;;;;;;;;;;;8.10;99.90;;;;;;5030063;28;19913;-59
2023/03/20 06:22:52;;;;;;;;;;;8.10;99.90;;;;;;5030579;28;19917;-62
2023/03/20 06:25:18;;;;;;;;;;;8.10;99.90;;;;;;5027113;28;19920;-59
2023/03/20 06:27:47;;;;;;;;;;;8.10;99.90;;;;;;5023996;28;19917;-61
2023/03/20 06:30:12;;;;;;;;;;;8.20;99.90;;;;;;5025981;28;19990;-61
2023/03/20 06:32:38;;;;;;;;;;;8.20;99.90;;;;;;5025267;28;20417;-60
2023/03/20 06:35:04;;;;;;;;;;;8.30;99.90;;;;;;5027842;28;19972;-62
2023/03/20 06:37:30;;;;;;;;;;;8.30;99.90;;;;;;5026565;28;20375;-61
2023/03/20 06:39:56;;;;;;;;;;;8.30;99.90;;;;;;5031796;28;20012;-63
2023/03/20 06:42:21;;;;;;;;;;;8.30;99.90;;;;;;5031695;28;19909;-61
2023/03/20 06:44:46;;;;;;;;;;;8.30;99.90;;;;;;5028455;28;20509;-61
2023/03/20 06:47:12;;;;;;;;;;;8.40;99.90;;;;;;5036736;28;20294;-61
2023/03/20 06:49:37;;;;;;;;;;;8.40;99.90;;;;;;5030443;28;19960;-61
2023/03/20 06:52:03;;;;;;;;;;;8.40;99.90;;;;;;5029431;28;19941;-62
2023/03/20 06:54:29;;;;;;;;;;;8.40;99.90;;;;;;5029962;28;19920;-61
2023/03/20 06:56:54;;;;;;;;;;;8.40;99.90;;;;;;5013972;28;19955;-60
2023/03/20 06:59:20;;;;;;;;;;;8.30;99.90;;;;;;5009679;28;19951;-61
2023/03/20 07:01:46;;;;;;;;;;;8.30;99.90;;;;;;5030889;28;19913;-60
2023/03/20 07:04:11;;;;;;;;;;;8.30;99.90;;;;;;5027387;28;19924;-62
2023/03/20 07:06:37;;;;;;;;;;;8.30;99.90;;;;;;5028501;28;19917;-62
2023/03/20 07:09:03;;;;;;;;;;;8.40;99.90;;;;;;5029774;28;20008;-61
2023/03/20 07:11:29;;;;;;;;;;;8.40;99.90;;;;;;5018513;28;20031;-59
2023/03/20 07:13:55;;;;;;;;;;;8.50;99.90;;;;;;5027847;28;20372;-59
2023/03/20 07:16:21;;;;;;;;;;;8.60;99.90;;;;;;5028915;28;19917;-61
2023/03/20 07:18:46;;;;;;;;;;;8.60;99.90;;;;;;5024743;28;19928;-61
2023/03/20 07:21:16;;;;;;;;;;;8.70;99.90;;;;;;5007084;28;19913;-61
2023/03/20 07:23:41;;;;;;;;;;;8.70;99.90;;;;;;5028931;28;20491;-61
2023/03/20 07:26:06;;;;;;;;;;;8.70;99.90;;;;;;5032430;28;19914;-63
2023/03/20 07:28:32;;;;;;;;;;;8.70;99.90;;;;;;5013213;28;19913;-61
2023/03/20 07:30:57;;;;;;;;;;;8.80;99.90;;;;;;5028779;28;19913;-61
2023/03/20 07:33:23;;;;;;;;;;;8.90;99.90;;;;;;5028041;28;19982;-60
2023/03/20 07:35:54;;;;;;;;;;;8.80;99.90;;;;;;5027886;28;20386;-61
2023/03/20 07:38:20;;;;;;;;;;;8.90;99.90;;;;;;5022820;28;20386;-61
2023/03/20 07:40:47;;;;;;;;;;;8.90;99.90;;;;;;5026220;28;19921;-58
2023/03/20 07:43:13;;;;;;;;;;;8.90;99.90;;;;;;5026085;28;19913;-59
2023/03/20 07:45:39;;;;;;;;;;;8.90;99.90;;;;;;5021932;28;19956;-61
2023/03/20 07:48:04;;;;;;;;;;;9.00;99.90;;;;;;5027535;28;19957;-60
2023/03/20 07:50:30;;;;;;;;;;;9.10;99.90;;;;;;5022851;28;19916;-62
2023/03/20 07:52:55;;;;;;;;;;;9.10;99.90;;;;;;5014217;28;19919;-61
2023/03/20 07:55:21;;;;;;;;;;;9.00;99.90;;;;;;5032627;28;19913;-61
2023/03/20 07:57:48;;;;;;;;;;;9.00;99.90;;;;;;5024259;28;20379;-61
2023/03/20 08:00:14;;;;;;;;;;;9.10;99.90;;;;;;5026044;28;20401;-60
2023/03/20 08:02:39;;;;;;;;;;;9.10;99.90;;;;;;5030818;28;19913;-61
2023/03/20 08:05:06;;;;;;;;;;;9.00;99.90;;;;;;5026448;28;20303;-61
2023/03/20 08:07:32;;;;;;;;;;;9.00;99.90;;;;;;5019229;28;19936;-60
2023/03/20 08:09:57;;;;;;;;;;;9.00;99.90;;;;;;5010303;28;19910;-63
2023/03/20 08:12:23;;;;;;;;;;;9.10;99.90;;;;;;5021500;28;20292;-59
2023/03/20 08:14:48;;;;;;;;;;;9.10;99.90;;;;;;5028736;28;19960;-59
2023/03/20 08:17:14;;;;;;;;;;;9.10;99.90;;;;;;5022529;28;19960;-60
2023/03/20 08:19:39;;;;;;;;;;;9.20;99.90;;;;;;5026748;28;19913;-59
2023/03/20 08:22:05;;;;;;;;;;;9.30;99.90;;;;;;5022317;28;19979;-59
2023/03/20 08:24:31;;;;;;;;;;;9.30;99.90;;;;;;5019300;28;19924;-61
2023/03/20 08:26:56;;;;;;;;;;;9.40;99.90;;;;;;5025346;28;19917;-60
2023/03/20 08:29:22;;;;;;;;;;;9.50;99.90;;;;;;5026753;28;20355;-60
2023/03/20 08:31:48;;;;;;;;;;;9.40;99.90;;;;;;5026060;28;20498;-59
2023/03/20 08:34:13;;;;;;;;;;;9.30;99.90;;;;;;5028666;28;19917;-57
2023/03/20 08:36:39;;;;;;;;;;;9.40;99.90;;;;;;5024410;28;19917;-60
2023/03/20 08:39:05;;;;;;;;;;;9.40;99.90;;;;;;5034318;28;19913;-61
2023/03/20 08:41:31;;;;;;;;;;;9.50;99.90;;;;;;5027994;28;19910;-61
2023/03/20 08:43:57;;;;;;;;;;;9.60;99.90;;;;;;5027460;28;19929;-60
2023/03/20 08:46:22;;;;;;;;;;;9.60;99.90;;;;;;5026105;28;19970;-61
2023/03/20 08:48:48;;;;;;;;;;;9.60;99.90;;;;;;5044182;28;19913;-60
2023/03/20 08:51:13;;;;;;;;;;;9.60;99.90;;;;;;5027398;28;19964;-59
2023/03/20 08:53:39;;;;;;;;;;;9.70;99.90;;;;;;5028338;28;21835;-61
2023/03/20 08:56:05;;;;;;;;;;;9.90;99.90;;;;;;5027156;28;19905;-60
2023/03/20 08:58:30;;;;;;;;;;;9.90;99.90;;;;;;5028811;28;19913;-60
2023/03/20 09:00:56;;;;;;;;;;;9.90;99.90;;;;;;5027481;28;19975;-60
2023/03/20 09:03:21;;;;;;;;;;;9.80;99.90;;;;;;5027029;28;20334;-60
2023/03/20 09:05:47;;;;;;;;;;;10.00;99.90;;;;;;5034382;28;19936;-60
2023/03/20 09:08:13;;;;;;;;;;;10.10;99.90;;;;;;5022395;28;19921;-59
2023/03/20 09:10:39;;;;;;;;;;;10.20;99.90;;;;;;5026591;28;20393;-61
2023/03/20 09:13:05;;;;;;;;;;;9.90;99.90;;;;;;5029631;28;20011;-60
2023/03/20 09:15:30;;;;;;;;;;;10.00;99.90;;;;;;5025842;28;19997;-59
2023/03/20 09:17:56;;;;;;;;;;;9.90;99.90;;;;;;5024611;28;19917;-62
2023/03/20 09:20:21;;;;;;;;;;;10.00;99.90;;;;;;5028593;28;20004;-58
2023/03/20 09:22:47;;;;;;;;;;;9.60;99.90;;;;;;5027080;28;20293;-59
2023/03/20 09:25:12;;;;;;;;;;;9.70;99.90;;;;;;5028570;28;20366;-61
2023/03/20 09:27:38;;;;;;;;;;;9.80;99.90;;;;;;5027336;28;20003;-60
2023/03/20 09:30:04;;;;;;;;;;;9.90;99.90;;;;;;5028411;28;19941;-60
2023/03/20 09:32:30;;;;;;;;;;;9.90;99.90;;;;;;5027047;28;20011;-61
2023/03/20 09:34:55;;;;;;;;;;;9.90;99.90;;;;;;5028141;28;19995;-61
2023/03/20 09:37:21;;;;;;;;;;;9.90;99.90;;;;;;5026474;28;19909;-60
2023/03/20 09:39:46;;;;;;;;;;;9.90;99.90;;;;;;5028483;28;19913;-58
2023/03/20 09:42:22;;;;;;;;;;;10.00;99.90;;;;;;5029840;28;19909;-60
2023/03/20 09:45:07;;;;;;;;;;;10.00;99.90;;;;;;5026812;28;19963;-60
2023/03/20 09:47:37;;;;;;;;;;;10.10;99.90;;;;;;5032109;28;19913;-61
2023/03/20 09:50:11;;;;;;;;;;;10.20;99.90;;;;;;5031733;28;20334;-61
2023/03/20 09:52:43;;;;;;;;;;;10.30;99.90;;;;;;5028667;28;20457;-60
2023/03/20 09:55:13;;;;;;;;;;;10.40;99.90;;;;;;5030776;28;19920;-59
2023/03/20 09:57:44;;;;;;;;;;;10.40;99.90;;;;;;5030995;28;19913;-60
2023/03/20 10:00:13;;;;;;;;;;;10.20;99.90;;;;;;5033116;28;20327;-61
2023/03/20 10:02:57;;;;;;;;;;;10.30;99.90;;;;;;5027062;28;19918;-60
2023/03/20 10:05:24;;;;;;;;;;;10.30;99.90;;;;;;5029378;28;19928;-61
2023/03/20 10:07:50;;;;;;;;;;;10.50;99.90;;;;;;5028614;28;19924;-59
2023/03/20 10:10:19;;;;;;;;;;;10.30;99.90;;;;;;5030420;28;19928;-60
2023/03/20 10:12:55;;;;;;;;;;;10.30;99.90;;;;;;5031755;28;20020;-60
2023/03/20 10:15:26;;;;;;;;;;;10.40;99.90;;;;;;5031037;28;19916;-61
2023/03/20 10:18:06;;;;;;;;;;;10.40;99.90;;;;;;5026062;28;19967;-61
2023/03/20 10:20:33;;;;;;;;;;;10.40;99.90;;;;;;5031865;28;19917;-60
2023/03/20 10:23:06;;;;;;;;;;;10.50;99.90;;;;;;5031120;28;19909;-59
2023/03/20 10:25:50;;;;;;;;;;;10.70;99.90;;;;;;5028707;28;20395;-61
2023/03/20 10:28:21;;;;;;;;;;;10.60;99.90;;;;;;5028734;28;19940;-60
2023/03/20 10:30:52;;;;;;;;;;;10.80;99.90;;;;;;5030682;28;20643;-60
2023/03/20 10:33:39;;;;;;;;;;;10.70;99.90;;;;;;5029989;28;20511;-60
2023/03/20 10:36:17;;;;;;;;;;;10.80;99.90;;;;;;5026939;28;19955;-56
2023/03/20 10:38:54;;;;;;;;;;;10.70;99.90;;;;;;5027107;28;21174;-61
2023/03/20 10:41:22;;;;;;;;;;;10.50;99.90;;;;;;5029790;28;19971;-59
2023/03/20 10:43:48;;;;;;;;;;;10.50;99.90;;;;;;5031876;28;20619;-61
2023/03/20 10:46:27;;;;;;;;;;;10.40;99.90;;;;;;5026337;28;20359;-59
2023/03/20 10:48:57;;;;;;;;;;;10.40;99.90;;;;;;5026354;28;19917;-59
2023/03/20 10:51:27;;;;;;;;;;;10.30;99.90;;;;;;5027920;28;19924;-60
2023/03/20 10:53:55;;;;;;;;;;;10.20;99.90;;;;;;5031280;28;19909;-61
2023/03/20 10:56:41;;;;;;;;;;;10.30;99.90;;;;;;5029853;28;19932;-59
2023/03/20 10:59:10;;;;;;;;;;;10.20;99.90;;;;;;5028447;28;19972;-60
2023/03/20 11:01:35;;;;;;;;;;;10.20;99.90;;;;;;5029977;28;20359;-60
2023/03/20 11:04:01;;;;;;;;;;;10.30;99.90;;;;;;5029990;28;19953;-59
2023/03/20 11:06:40;;;;;;;;;;;10.20;99.90;;;;;;5029804;28;19971;-59
2023/03/20 11:09:18;;;;;;;;;;;10.20;99.90;;;;;;5028820;28;19920;-59
2023/03/20 11:11:45;;;;;;;;;;;10.30;99.90;;;;;;5028871;28;19956;-59
2023/03/20 11:14:18;;;;;;;;;;;10.40;99.90;;;;;;5027450;28;20044;-61
2023/03/20 11:16:46;;;;;;;;;;;10.50;99.90;;;;;;5028344;28;20360;-60
2023/03/20 11:19:13;;;;;;;;;;;10.50;99.90;;;;;;5027899;28;19917;-60
2023/03/20 11:21:46;;;;;;;;;;;10.40;99.90;;;;;;5027403;28;19999;-59
2023/03/20 11:24:26;;;;;;;;;;;10.40;99.90;;;;;;5027559;28;20366;-60
2023/03/20 11:26:51;;;;;;;;;;;10.40;99.90;;;;;;5031019;28;19917;-59
2023/03/20 11:29:23;;;;;;;;;;;10.30;99.90;;;;;;5032184;28;19967;-60
2023/03/20 11:31:49;;;;;;;;;;;10.30;99.90;;;;;;5029334;28;19913;-57
2023/03/20 11:34:15;;;;;;;;;;;10.40;99.90;;;;;;5028853;28;19967;-62
2023/03/20 11:37:09;;;;;;;;;;;10.30;99.90;;;;;;5030642;28;19933;-59
2023/03/20 11:39:36;;;;;;;;;;;10.40;99.90;;;;;;5017212;28;19924;-59
2023/03/20 11:42:04;;;;;;;;;;;10.20;99.90;;;;;;5034719;28;19920;-61
2023/03/20 11:44:31;;;;;;;;;;;10.30;99.90;;;;;;5027776;28;19942;-59
2023/03/20 11:46:58;;;;;;;;;;;10.30;99.90;;;;;;5028218;28;20597;-59
2023/03/20 11:49:24;;;;;;;;;;;10.40;99.90;;;;;;5026490;28;20011;-59
2023/03/20 11:51:50;;;;;;;;;;;10.30;99.90;;;;;;5028933;28;20007;-59
2023/03/20 11:54:18;;;;;;;;;;;10.20;99.90;;;;;;5027525;28;19913;-61
2023/03/20 11:56:50;;;;;;;;;;;10.40;99.90;;;;;;5032913;28;19970;-60
2023/03/20 11:59:17;;;;;;;;;;;10.50;99.90;;;;;;5024515;28;20301;-59
2023/03/20 12:01:47;;;;;;;;;;;10.20;99.90;;;;;;5031641;28;19917;-59
2023/03/20 12:04:17;;;;;;;;;;;10.30;99.90;;;;;;5024506;28;19918;-60
2023/03/20 12:06:57;;;;;;;;;;;10.30;99.90;;;;;;5028566;28;19925;-60
2023/03/20 12:09:30;;;;;;;;;;;10.30;99.90;;;;;;5022777;28;19963;-56
2023/03/20 12:11:59;;;;;;;;;;;10.30;99.90;;;;;;5029088;28;19944;-61
2023/03/20 12:14:34;;;;;;;;;;;10.40;99.90;;;;;;5024380;28;19917;-62
2023/03/20 12:17:12;;;;;;;;;;;10.60;99.90;;;;;;5028873;28;20016;-58
2023/03/20 12:19:39;;;;;;;;;;;10.70;99.90;;;;;;5026945;28;19913;-59
2023/03/20 12:22:16;;;;;;;;;;;10.60;99.90;;;;;;5029087;28;19972;-61
2023/03/20 12:24:45;;;;;;;;;;;10.60;99.90;;;;;;5029746;28;20027;-60
2023/03/20 12:27:10;;;;;;;;;;;10.30;99.90;;;;;;5027785;28;19917;-61
2023/03/20 12:29:39;;;;;;;;;;;10.50;99.90;;;;;;5027131;28;19967;-61
2023/03/20 12:32:11;;;;;;;;;;;10.50;99.90;;;;;;5028169;28;19952;-59
2023/03/20 12:34:40;;;;;;;;;;;10.40;99.90;;;;;;5025361;28;19917;-60
2023/03/20 12:37:08;;;;;;;;;;;10.30;99.90;;;;;;5028799;28;19917;-60
2023/03/20 12:39:37;;;;;;;;;;;10.30;99.90;;;;;;5032264;28;19913;-61
2023/03/20 12:42:03;;;;;;;;;;;9.80;99.90;;;;;;5027616;28;19971;-62
2023/03/20 12:44:31;;;;;;;;;;;10.00;99.90;;;;;;5023313;28;19917;-59
2023/03/20 12:47:00;;;;;;;;;;;9.90;99.90;;;;;;5028610;28;19932;-59
2023/03/20 12:49:32;;;;;;;;;;;9.90;99.90;;;;;;5027090;28;19943;-57
2023/03/20 12:52:16;;;;;;;;;;;10.00;99.90;;;;;;5027919;28;19917;-61
2023/03/20 12:54:48;;;;;;;;;;;10.20;99.90;;;;;;5027390;28;19959;-62
2023/03/20 12:57:19;;;;;;;;;;;10.30;99.90;;;;;;5047350;28;20286;-61
2023/03/20 12:59:59;;;;;;;;;;;10.40;99.90;;;;;;5026465;28;20011;-60
2023/03/20 13:02:34;;;;;;;;;;;10.50;99.90;;;;;;5027360;28;20426;-62
2023/03/20 13:05:04;;;;;;;;;;;10.70;99.90;;;;;;5023911;28;20773;-61
2023/03/20 13:07:47;;;;;;;;;;;10.50;99.90;;;;;;5021621;28;19920;-59
2023/03/20 13:10:20;;;;;;;;;;;10.40;99.90;;;;;;5023108;28;19956;-54
2023/03/20 13:13:04;;;;;;;;;;;10.50;99.90;;;;;;5027275;28;19928;-60
2023/03/20 13:15:38;;;;;;;;;;;10.70;99.90;;;;;;5025061;28;19936;-61
2023/03/20 13:18:16;;;;;;;;;;;10.70;99.90;;;;;;5012533;28;19917;-62
2023/03/20 13:20:50;;;;;;;;;;;10.60;99.90;;;;;;5029468;28;19956;-60
2023/03/20 13:23:22;;;;;;;;;;;10.70;99.90;;;;;;5031976;28;19997;-59
2023/03/20 13:26:06;;;;;;;;;;;10.70;99.90;;;;;;5029082;28;19917;-60
2023/03/20 13:28:34;;;;;;;;;;;10.70;99.90;;;;;;5028555;28;20016;-59
2023/03/20 13:31:18;;;;;;;;;;;10.80;99.90;;;;;;5032801;28;19924;-58
2023/03/20 13:33:43;;;;;;;;;;;11.00;99.90;;;;;;5026708;28;19925;-59
2023/03/20 13:36:23;;;;;;;;;;;11.00;99.90;;;;;;5036791;28;19913;-61
2023/03/20 13:38:52;;;;;;;;;;;11.30;99.90;;;;;;5033601;28;19917;-56
2023/03/20 13:41:17;;;;;;;;;;;11.30;99.90;;;;;;5035317;28;19937;-59
2023/03/20 13:43:53;;;;;;;;;;;11.40;99.90;;;;;;5023698;28;20012;-58
2023/03/20 13:46:21;;;;;;;;;;;11.10;99.90;;;;;;5031813;28;20370;-60
2023/03/20 13:48:47;;;;;;;;;;;11.10;99.90;;;;;;5037509;28;19949;-57
2023/03/20 13:51:13;;;;;;;;;;;11.00;99.90;;;;;;5035126;28;20324;-56
2023/03/20 13:53:53;;;;;;;;;;;11.00;99.90;;;;;;5028388;28;19920;-61
2023/03/20 13:56:36;;;;;;;;;;;11.10;99.90;;;;;;5031383;28;19948;-59
2023/03/20 13:59:02;;;;;;;;;;;11.30;99.90;;;;;;5031552;28;19963;-58
2023/03/20 14:01:28;;;;;;;;;;;11.00;99.90;;;;;;5033349;28;19936;-61
2023/03/20 14:03:53;;;;;;;;;;;11.20;99.90;;;;;;5035230;28;19920;-60
2023/03/20 14:06:22;;;;;;;;;;;11.40;99.90;;;;;;5031251;28;19916;-59
2023/03/20 14:08:48;;;;;;;;;;;11.50;99.90;;;;;;5031624;28;19928;-58
2023/03/20 14:11:14;;;;;;;;;;;11.30;99.90;;;;;;5029122;28;19924;-59
2023/03/20 14:13:44;;;;;;;;;;;11.20;99.90;;;;;;5029946;28;19921;-61
2023/03/20 14:16:13;;;;;;;;;;;11.50;99.90;;;;;;5028595;28;19917;-61
2023/03/20 14:18:39;;;;;;;;;;;11.60;99.90;;;;;;5030666;28;19924;-61
2023/03/20 14:21:12;;;;;;;;;;;11.80;99.90;;;;;;5028408;28;19955;-61
2023/03/20 14:23:40;;;;;;;;;;;11.90;99.90;;;;;;5041026;28;19917;-61
2023/03/20 14:26:19;;;;;;;;;;;11.90;99.90;;;;;;5030386;28;19913;-62
2023/03/20 14:28:57;;;;;;;;;;;11.60;99.90;;;;;;5027990;28;19921;-58
2023/03/20 14:31:24;;;;;;;;;;;11.50;99.90;;;;;;5025479;28;19928;-59
2023/03/20 14:33:53;;;;;;;;;;;11.40;99.90;;;;;;5018119;28;19927;-57
2023/03/20 14:36:20;;;;;;;;;;;11.40;99.90;;;;;;5025290;28;19913;-60